sensor_id;sensor_type;location;lat;lon;timestamp;P1;durP1;ratioP1;P2;durP2;ratioP2
23802;SDS011;12082;51.786;6.018;2023-08-08T00:00:34;34.97;;;32.93;;
23802;SDS011;12082;51.786;6.018;2023-08-08T00:03:00;35.27;;;32.77;;
23802;SDS011;12082;51.786;6.018;2023-08-08T00:05:25;37.57;;;34.93;;
23802;SDS011;12082;51.786;6.018;2023-08-08T00:07:51;37.10;;;34.70;;
23802;SDS011;12082;51.786;6.018;2023-08-08T00:10:17;34.50;;;32.50;;
23802;SDS011;12082;51.786;6.018;2023-08-08T00:12:42;34.73;;;32.73;;
23802;SDS011;12082;51.786;6.018;2023-08-08T00:15:08;33.53;;;31.40;;
23802;SDS011;12082;51.786;6.018;2023-08-08T00:17:34;34.17;;;31.97;;
23802;SDS011;12082;51.786;6.018;2023-08-08T00:20:00;31.37;;;29.53;;
23802;SDS011;12082;51.786;6.018;2023-08-08T00:22:25;33.53;;;31.60;;
23802;SDS011;12082;51.786;6.018;2023-08-08T00:24:51;34.13;;;32.23;;
23802;SDS011;12082;51.786;6.018;2023-08-08T00:27:16;34.03;;;31.93;;
23802;SDS011;12082;51.786;6.018;2023-08-08T00:29:42;32.80;;;30.80;;
23802;SDS011;12082;51.786;6.018;2023-08-08T00:32:07;34.57;;;32.07;;
23802;SDS011;12082;51.786;6.018;2023-08-08T00:34:33;35.23;;;32.50;;
23802;SDS011;12082;51.786;6.018;2023-08-08T00:36:58;31.80;;;29.90;;
23802;SDS011;12082;51.786;6.018;2023-08-08T00:39:24;33.47;;;31.43;;
23802;SDS011;12082;51.786;6.018;2023-08-08T00:41:49;32.47;;;30.60;;
23802;SDS011;12082;51.786;6.018;2023-08-08T00:44:15;30.70;;;28.87;;
23802;SDS011;12082;51.786;6.018;2023-08-08T00:46:40;35.87;;;33.93;;
23802;SDS011;12082;51.786;6.018;2023-08-08T00:49:06;33.50;;;31.13;;
23802;SDS011;12082;51.786;6.018;2023-08-08T00:51:32;30.27;;;28.50;;
23802;SDS011;12082;51.786;6.018;2023-08-08T00:53:57;31.27;;;29.20;;
23802;SDS011;12082;51.786;6.018;2023-08-08T00:56:24;32.23;;;29.90;;
23802;SDS011;12082;51.786;6.018;2023-08-08T00:58:50;31.07;;;29.37;;
23802;SDS011;12082;51.786;6.018;2023-08-08T01:01:16;32.50;;;30.33;;
23802;SDS011;12082;51.786;6.018;2023-08-08T01:03:43;31.17;;;28.90;;
23802;SDS011;12082;51.786;6.018;2023-08-08T01:06:11;33.10;;;31.00;;
23802;SDS011;12082;51.786;6.018;2023-08-08T01:08:47;34.00;;;32.07;;
23802;SDS011;12082;51.786;6.018;2023-08-08T01:11:20;29.63;;;27.63;;
23802;SDS011;12082;51.786;6.018;2023-08-08T01:13:46;32.23;;;30.33;;
23802;SDS011;12082;51.786;6.018;2023-08-08T01:16:12;33.47;;;31.10;;
23802;SDS011;12082;51.786;6.018;2023-08-08T01:18:38;36.13;;;33.90;;
23802;SDS011;12082;51.786;6.018;2023-08-08T01:21:05;34.50;;;32.13;;
23802;SDS011;12082;51.786;6.018;2023-08-08T01:23:34;33.90;;;31.30;;
23802;SDS011;12082;51.786;6.018;2023-08-08T01:26:21;32.63;;;30.73;;
23802;SDS011;12082;51.786;6.018;2023-08-08T01:28:47;32.80;;;30.77;;
23802;SDS011;12082;51.786;6.018;2023-08-08T01:31:12;32.60;;;30.23;;
23802;SDS011;12082;51.786;6.018;2023-08-08T01:33:38;32.37;;;30.37;;
23802;SDS011;12082;51.786;6.018;2023-08-08T01:36:27;36.07;;;33.73;;
23802;SDS011;12082;51.786;6.018;2023-08-08T01:38:55;33.13;;;30.93;;
23802;SDS011;12082;51.786;6.018;2023-08-08T01:41:29;33.53;;;31.63;;
23802;SDS011;12082;51.786;6.018;2023-08-08T01:43:59;32.80;;;30.53;;
23802;SDS011;12082;51.786;6.018;2023-08-08T01:46:26;34.07;;;31.97;;
23802;SDS011;12082;51.786;6.018;2023-08-08T01:48:52;35.37;;;33.03;;
23802;SDS011;12082;51.786;6.018;2023-08-08T01:51:17;34.43;;;32.33;;
23802;SDS011;12082;51.786;6.018;2023-08-08T01:53:43;35.53;;;32.93;;
23802;SDS011;12082;51.786;6.018;2023-08-08T01:56:08;34.50;;;32.07;;
23802;SDS011;12082;51.786;6.018;2023-08-08T01:58:34;34.47;;;31.80;;
23802;SDS011;12082;51.786;6.018;2023-08-08T02:01:00;33.07;;;31.07;;
23802;SDS011;12082;51.786;6.018;2023-08-08T02:03:25;35.20;;;32.27;;
23802;SDS011;12082;51.786;6.018;2023-08-08T02:05:51;32.40;;;30.33;;
23802;SDS011;12082;51.786;6.018;2023-08-08T02:08:16;36.33;;;33.53;;
23802;SDS011;12082;51.786;6.018;2023-08-08T02:10:43;35.40;;;33.30;;
23802;SDS011;12082;51.786;6.018;2023-08-08T02:13:08;36.87;;;34.53;;
23802;SDS011;12082;51.786;6.018;2023-08-08T02:15:34;31.53;;;29.13;;
23802;SDS011;12082;51.786;6.018;2023-08-08T02:17:59;31.97;;;29.40;;
23802;SDS011;12082;51.786;6.018;2023-08-08T02:20:25;32.83;;;30.67;;
23802;SDS011;12082;51.786;6.018;2023-08-08T02:22:51;30.57;;;28.73;;
23802;SDS011;12082;51.786;6.018;2023-08-08T02:25:17;33.97;;;31.77;;
23802;SDS011;12082;51.786;6.018;2023-08-08T02:27:43;32.63;;;30.33;;
23802;SDS011;12082;51.786;6.018;2023-08-08T02:30:08;30.43;;;28.47;;
23802;SDS011;12082;51.786;6.018;2023-08-08T02:32:34;31.23;;;29.20;;
23802;SDS011;12082;51.786;6.018;2023-08-08T02:35:00;32.67;;;30.47;;
23802;SDS011;12082;51.786;6.018;2023-08-08T02:37:25;31.17;;;28.70;;
23802;SDS011;12082;51.786;6.018;2023-08-08T02:39:51;32.03;;;29.83;;
23802;SDS011;12082;51.786;6.018;2023-08-08T02:42:17;32.93;;;30.03;;
23802;SDS011;12082;51.786;6.018;2023-08-08T02:44:42;34.67;;;32.20;;
23802;SDS011;12082;51.786;6.018;2023-08-08T02:47:08;37.90;;;35.43;;
23802;SDS011;12082;51.786;6.018;2023-08-08T02:49:33;35.67;;;33.13;;
23802;SDS011;12082;51.786;6.018;2023-08-08T02:51:59;39.27;;;36.10;;
23802;SDS011;12082;51.786;6.018;2023-08-08T02:54:25;40.03;;;37.27;;
23802;SDS011;12082;51.786;6.018;2023-08-08T02:56:51;38.10;;;35.10;;
23802;SDS011;12082;51.786;6.018;2023-08-08T02:59:16;36.23;;;33.10;;
23802;SDS011;12082;51.786;6.018;2023-08-08T03:01:42;39.40;;;36.30;;
23802;SDS011;12082;51.786;6.018;2023-08-08T03:04:07;39.00;;;36.17;;
23802;SDS011;12082;51.786;6.018;2023-08-08T03:06:33;42.07;;;39.27;;
23802;SDS011;12082;51.786;6.018;2023-08-08T03:08:59;41.37;;;38.13;;
23802;SDS011;12082;51.786;6.018;2023-08-08T03:11:24;39.60;;;36.37;;
23802;SDS011;12082;51.786;6.018;2023-08-08T03:13:50;40.27;;;37.33;;
23802;SDS011;12082;51.786;6.018;2023-08-08T03:16:15;38.63;;;35.87;;
23802;SDS011;12082;51.786;6.018;2023-08-08T03:18:41;38.50;;;35.40;;
23802;SDS011;12082;51.786;6.018;2023-08-08T03:21:06;40.23;;;37.10;;
23802;SDS011;12082;51.786;6.018;2023-08-08T03:23:32;37.20;;;34.33;;
23802;SDS011;12082;51.786;6.018;2023-08-08T03:25:57;39.53;;;36.67;;
23802;SDS011;12082;51.786;6.018;2023-08-08T03:28:23;38.90;;;35.80;;
23802;SDS011;12082;51.786;6.018;2023-08-08T03:30:49;45.10;;;41.87;;
23802;SDS011;12082;51.786;6.018;2023-08-08T03:33:14;45.10;;;41.43;;
23802;SDS011;12082;51.786;6.018;2023-08-08T03:35:40;43.27;;;39.67;;
23802;SDS011;12082;51.786;6.018;2023-08-08T03:38:05;42.50;;;39.33;;
23802;SDS011;12082;51.786;6.018;2023-08-08T03:40:31;43.43;;;40.30;;
23802;SDS011;12082;51.786;6.018;2023-08-08T03:42:57;44.40;;;40.63;;
23802;SDS011;12082;51.786;6.018;2023-08-08T03:45:23;44.67;;;40.73;;
23802;SDS011;12082;51.786;6.018;2023-08-08T03:47:48;43.87;;;40.60;;
23802;SDS011;12082;51.786;6.018;2023-08-08T03:50:14;39.53;;;36.67;;
23802;SDS011;12082;51.786;6.018;2023-08-08T03:52:39;44.87;;;41.13;;
23802;SDS011;12082;51.786;6.018;2023-08-08T03:55:05;42.67;;;39.57;;
23802;SDS011;12082;51.786;6.018;2023-08-08T03:57:31;45.63;;;41.80;;
23802;SDS011;12082;51.786;6.018;2023-08-08T03:59:56;50.83;;;47.23;;
23802;SDS011;12082;51.786;6.018;2023-08-08T04:02:22;47.97;;;43.87;;
23802;SDS011;12082;51.786;6.018;2023-08-08T04:04:48;46.03;;;42.47;;
23802;SDS011;12082;51.786;6.018;2023-08-08T04:07:13;48.40;;;44.13;;
23802;SDS011;12082;51.786;6.018;2023-08-08T04:09:39;48.20;;;44.30;;
23802;SDS011;12082;51.786;6.018;2023-08-08T04:12:04;50.40;;;46.17;;
23802;SDS011;12082;51.786;6.018;2023-08-08T04:14:30;51.90;;;47.87;;
23802;SDS011;12082;51.786;6.018;2023-08-08T04:16:56;47.70;;;43.90;;
23802;SDS011;12082;51.786;6.018;2023-08-08T04:19:21;47.13;;;43.27;;
23802;SDS011;12082;51.786;6.018;2023-08-08T04:21:48;46.17;;;41.90;;
23802;SDS011;12082;51.786;6.018;2023-08-08T04:24:13;50.97;;;46.93;;
23802;SDS011;12082;51.786;6.018;2023-08-08T04:26:39;50.63;;;46.57;;
23802;SDS011;12082;51.786;6.018;2023-08-08T04:29:05;51.83;;;47.93;;
23802;SDS011;12082;51.786;6.018;2023-08-08T04:31:31;54.60;;;50.23;;
23802;SDS011;12082;51.786;6.018;2023-08-08T04:33:56;54.80;;;50.07;;
23802;SDS011;12082;51.786;6.018;2023-08-08T04:36:25;59.07;;;54.27;;
23802;SDS011;12082;51.786;6.018;2023-08-08T04:38:51;62.17;;;57.20;;
23802;SDS011;12082;51.786;6.018;2023-08-08T04:41:17;54.30;;;50.17;;
23802;SDS011;12082;51.786;6.018;2023-08-08T04:43:42;57.53;;;52.87;;
23802;SDS011;12082;51.786;6.018;2023-08-08T04:46:08;58.23;;;53.37;;
23802;SDS011;12082;51.786;6.018;2023-08-08T04:48:34;58.07;;;53.07;;
23802;SDS011;12082;51.786;6.018;2023-08-08T04:51:02;56.47;;;52.17;;
23802;SDS011;12082;51.786;6.018;2023-08-08T04:53:29;61.13;;;56.07;;
23802;SDS011;12082;51.786;6.018;2023-08-08T04:55:54;58.33;;;53.87;;
23802;SDS011;12082;51.786;6.018;2023-08-08T04:58:20;58.47;;;53.20;;
23802;SDS011;12082;51.786;6.018;2023-08-08T05:00:45;63.50;;;58.23;;
23802;SDS011;12082;51.786;6.018;2023-08-08T05:03:11;57.20;;;52.70;;
23802;SDS011;12082;51.786;6.018;2023-08-08T05:05:37;52.00;;;47.77;;
23802;SDS011;12082;51.786;6.018;2023-08-08T05:08:02;52.23;;;47.93;;
23802;SDS011;12082;51.786;6.018;2023-08-08T05:10:28;52.13;;;47.57;;
23802;SDS011;12082;51.786;6.018;2023-08-08T05:12:56;52.13;;;48.03;;
23802;SDS011;12082;51.786;6.018;2023-08-08T05:15:22;53.17;;;48.40;;
23802;SDS011;12082;51.786;6.018;2023-08-08T05:17:47;48.60;;;44.47;;
23802;SDS011;12082;51.786;6.018;2023-08-08T05:20:13;49.13;;;45.13;;
23802;SDS011;12082;51.786;6.018;2023-08-08T05:22:38;53.53;;;49.33;;
23802;SDS011;12082;51.786;6.018;2023-08-08T05:25:04;48.97;;;44.60;;
23802;SDS011;12082;51.786;6.018;2023-08-08T05:27:30;52.33;;;47.83;;
23802;SDS011;12082;51.786;6.018;2023-08-08T05:29:55;54.30;;;49.20;;
23802;SDS011;12082;51.786;6.018;2023-08-08T05:32:21;51.93;;;47.57;;
23802;SDS011;12082;51.786;6.018;2023-08-08T05:34:46;52.07;;;47.70;;
23802;SDS011;12082;51.786;6.018;2023-08-08T05:37:14;53.10;;;48.83;;
23802;SDS011;12082;51.786;6.018;2023-08-08T05:39:39;48.57;;;44.37;;
23802;SDS011;12082;51.786;6.018;2023-08-08T05:42:05;46.30;;;42.03;;
23802;SDS011;12082;51.786;6.018;2023-08-08T05:44:31;48.03;;;43.40;;
23802;SDS011;12082;51.786;6.018;2023-08-08T05:46:56;48.13;;;43.80;;
23802;SDS011;12082;51.786;6.018;2023-08-08T05:49:22;42.10;;;38.30;;
23802;SDS011;12082;51.786;6.018;2023-08-08T05:51:47;40.73;;;37.53;;
23802;SDS011;12082;51.786;6.018;2023-08-08T05:54:13;41.00;;;37.57;;
23802;SDS011;12082;51.786;6.018;2023-08-08T05:56:38;42.90;;;38.83;;
23802;SDS011;12082;51.786;6.018;2023-08-08T05:59:04;39.50;;;36.20;;
23802;SDS011;12082;51.786;6.018;2023-08-08T06:01:30;38.73;;;35.30;;
23802;SDS011;12082;51.786;6.018;2023-08-08T06:03:56;39.40;;;35.90;;
23802;SDS011;12082;51.786;6.018;2023-08-08T06:06:24;36.27;;;32.97;;
23802;SDS011;12082;51.786;6.018;2023-08-08T06:08:50;35.20;;;32.10;;
23802;SDS011;12082;51.786;6.018;2023-08-08T06:11:16;35.67;;;32.10;;
23802;SDS011;12082;51.786;6.018;2023-08-08T06:13:42;38.40;;;35.47;;
23802;SDS011;12082;51.786;6.018;2023-08-08T06:16:08;34.87;;;32.20;;
23802;SDS011;12082;51.786;6.018;2023-08-08T06:18:34;36.20;;;33.33;;
23802;SDS011;12082;51.786;6.018;2023-08-08T06:21:00;35.30;;;31.80;;
23802;SDS011;12082;51.786;6.018;2023-08-08T06:23:25;39.23;;;35.83;;
23802;SDS011;12082;51.786;6.018;2023-08-08T06:25:51;34.17;;;31.40;;
23802;SDS011;12082;51.786;6.018;2023-08-08T06:28:17;34.40;;;31.73;;
23802;SDS011;12082;51.786;6.018;2023-08-08T06:30:42;34.97;;;32.13;;
23802;SDS011;12082;51.786;6.018;2023-08-08T06:33:08;36.50;;;33.13;;
23802;SDS011;12082;51.786;6.018;2023-08-08T06:35:33;32.77;;;29.97;;
23802;SDS011;12082;51.786;6.018;2023-08-08T06:37:59;33.90;;;31.07;;
23802;SDS011;12082;51.786;6.018;2023-08-08T06:40:24;34.60;;;31.43;;
23802;SDS011;12082;51.786;6.018;2023-08-08T06:42:50;34.17;;;31.27;;
23802;SDS011;12082;51.786;6.018;2023-08-08T06:45:16;33.17;;;30.67;;
23802;SDS011;12082;51.786;6.018;2023-08-08T06:47:41;36.57;;;34.07;;
23802;SDS011;12082;51.786;6.018;2023-08-08T06:50:07;32.67;;;30.47;;
23802;SDS011;12082;51.786;6.018;2023-08-08T06:52:33;34.27;;;31.93;;
23802;SDS011;12082;51.786;6.018;2023-08-08T06:54:58;32.60;;;30.00;;
23802;SDS011;12082;51.786;6.018;2023-08-08T06:57:24;32.27;;;29.97;;
23802;SDS011;12082;51.786;6.018;2023-08-08T06:59:50;33.87;;;31.23;;
23802;SDS011;12082;51.786;6.018;2023-08-08T07:02:16;27.90;;;25.80;;
23802;SDS011;12082;51.786;6.018;2023-08-08T07:04:42;33.57;;;31.17;;
23802;SDS011;12082;51.786;6.018;2023-08-08T07:07:08;26.60;;;24.13;;
23802;SDS011;12082;51.786;6.018;2023-08-08T07:09:33;22.97;;;20.87;;
23802;SDS011;12082;51.786;6.018;2023-08-08T07:11:59;24.33;;;22.03;;
23802;SDS011;12082;51.786;6.018;2023-08-08T07:14:25;21.77;;;19.97;;
23802;SDS011;12082;51.786;6.018;2023-08-08T07:16:50;23.53;;;21.83;;
23802;SDS011;12082;51.786;6.018;2023-08-08T07:19:16;21.77;;;19.73;;
23802;SDS011;12082;51.786;6.018;2023-08-08T07:21:41;23.93;;;22.17;;
23802;SDS011;12082;51.786;6.018;2023-08-08T07:24:07;24.47;;;22.50;;
23802;SDS011;12082;51.786;6.018;2023-08-08T07:26:33;23.27;;;21.47;;
23802;SDS011;12082;51.786;6.018;2023-08-08T07:28:58;22.17;;;20.10;;
23802;SDS011;12082;51.786;6.018;2023-08-08T07:31:24;20.63;;;18.63;;
23802;SDS011;12082;51.786;6.018;2023-08-08T07:33:49;17.73;;;16.33;;
23802;SDS011;12082;51.786;6.018;2023-08-08T07:36:15;14.53;;;13.37;;
23802;SDS011;12082;51.786;6.018;2023-08-08T07:38:40;14.80;;;13.10;;
23802;SDS011;12082;51.786;6.018;2023-08-08T07:41:06;14.93;;;13.53;;
23802;SDS011;12082;51.786;6.018;2023-08-08T07:43:32;13.83;;;12.70;;
23802;SDS011;12082;51.786;6.018;2023-08-08T07:45:58;16.50;;;14.90;;
23802;SDS011;12082;51.786;6.018;2023-08-08T07:48:24;14.03;;;13.03;;
23802;SDS011;12082;51.786;6.018;2023-08-08T07:50:49;13.30;;;12.13;;
23802;SDS011;12082;51.786;6.018;2023-08-08T07:53:15;13.13;;;11.10;;
23802;SDS011;12082;51.786;6.018;2023-08-08T07:55:40;12.03;;;11.07;;
23802;SDS011;12082;51.786;6.018;2023-08-08T07:58:06;11.43;;;10.43;;
23802;SDS011;12082;51.786;6.018;2023-08-08T08:00:31;13.67;;;12.47;;
23802;SDS011;12082;51.786;6.018;2023-08-08T08:02:57;12.50;;;11.60;;
23802;SDS011;12082;51.786;6.018;2023-08-08T08:05:22;12.00;;;11.03;;
23802;SDS011;12082;51.786;6.018;2023-08-08T08:07:48;11.63;;;10.80;;
23802;SDS011;12082;51.786;6.018;2023-08-08T08:10:14;10.73;;;9.80;;
23802;SDS011;12082;51.786;6.018;2023-08-08T08:12:40;12.33;;;11.43;;
23802;SDS011;12082;51.786;6.018;2023-08-08T08:15:07;13.73;;;12.63;;
23802;SDS011;12082;51.786;6.018;2023-08-08T08:17:33;13.80;;;12.83;;
23802;SDS011;12082;51.786;6.018;2023-08-08T08:20:00;12.50;;;11.70;;
23802;SDS011;12082;51.786;6.018;2023-08-08T08:22:30;11.60;;;10.60;;
23802;SDS011;12082;51.786;6.018;2023-08-08T08:24:56;10.30;;;9.50;;
23802;SDS011;12082;51.786;6.018;2023-08-08T08:27:21;9.40;;;8.50;;
23802;SDS011;12082;51.786;6.018;2023-08-08T08:29:47;10.00;;;9.03;;
23802;SDS011;12082;51.786;6.018;2023-08-08T08:32:13;8.50;;;7.80;;
23802;SDS011;12082;51.786;6.018;2023-08-08T08:34:38;10.47;;;8.60;;
23802;SDS011;12082;51.786;6.018;2023-08-08T08:37:04;8.73;;;8.13;;
23802;SDS011;12082;51.786;6.018;2023-08-08T08:39:29;10.03;;;9.13;;
23802;SDS011;12082;51.786;6.018;2023-08-08T08:41:58;8.60;;;7.87;;
23802;SDS011;12082;51.786;6.018;2023-08-08T08:44:28;12.20;;;7.90;;
23802;SDS011;12082;51.786;6.018;2023-08-08T08:46:57;10.90;;;8.13;;
23802;SDS011;12082;51.786;6.018;2023-08-08T08:49:26;9.43;;;8.43;;
23802;SDS011;12082;51.786;6.018;2023-08-08T08:51:57;9.97;;;9.20;;
23802;SDS011;12082;51.786;6.018;2023-08-08T08:54:25;11.33;;;10.43;;
23802;SDS011;12082;51.786;6.018;2023-08-08T08:56:53;11.13;;;10.37;;
23802;SDS011;12082;51.786;6.018;2023-08-08T08:59:18;12.17;;;11.37;;
23802;SDS011;12082;51.786;6.018;2023-08-08T09:01:44;14.40;;;13.40;;
23802;SDS011;12082;51.786;6.018;2023-08-08T09:04:10;14.53;;;13.27;;
23802;SDS011;12082;51.786;6.018;2023-08-08T09:06:36;12.63;;;11.83;;
23802;SDS011;12082;51.786;6.018;2023-08-08T09:09:03;13.77;;;12.90;;
23802;SDS011;12082;51.786;6.018;2023-08-08T09:11:29;12.90;;;11.90;;
23802;SDS011;12082;51.786;6.018;2023-08-08T09:13:56;11.33;;;10.53;;
23802;SDS011;12082;51.786;6.018;2023-08-08T09:16:22;12.73;;;11.63;;
23802;SDS011;12082;51.786;6.018;2023-08-08T09:18:48;11.33;;;10.63;;
23802;SDS011;12082;51.786;6.018;2023-08-08T09:21:14;11.67;;;10.97;;
23802;SDS011;12082;51.786;6.018;2023-08-08T09:23:40;12.90;;;11.87;;
23802;SDS011;12082;51.786;6.018;2023-08-08T09:26:06;12.73;;;11.90;;
23802;SDS011;12082;51.786;6.018;2023-08-08T09:28:31;11.40;;;10.73;;
23802;SDS011;12082;51.786;6.018;2023-08-08T09:30:57;12.07;;;11.43;;
23802;SDS011;12082;51.786;6.018;2023-08-08T09:33:23;11.77;;;11.17;;
23802;SDS011;12082;51.786;6.018;2023-08-08T09:35:53;13.03;;;12.10;;
23802;SDS011;12082;51.786;6.018;2023-08-08T09:38:20;11.30;;;10.70;;
23802;SDS011;12082;51.786;6.018;2023-08-08T09:40:45;13.43;;;12.47;;
23802;SDS011;12082;51.786;6.018;2023-08-08T09:43:11;14.40;;;13.03;;
23802;SDS011;12082;51.786;6.018;2023-08-08T09:45:37;11.80;;;11.10;;
23802;SDS011;12082;51.786;6.018;2023-08-08T09:48:04;12.83;;;12.13;;
23802;SDS011;12082;51.786;6.018;2023-08-08T09:50:31;14.37;;;13.57;;
23802;SDS011;12082;51.786;6.018;2023-08-08T09:52:59;14.80;;;13.90;;
23802;SDS011;12082;51.786;6.018;2023-08-08T09:55:26;15.37;;;14.67;;
23802;SDS011;12082;51.786;6.018;2023-08-08T09:57:53;13.33;;;12.53;;
23802;SDS011;12082;51.786;6.018;2023-08-08T10:00:19;15.27;;;14.57;;
23802;SDS011;12082;51.786;6.018;2023-08-08T10:02:46;15.07;;;13.97;;
23802;SDS011;12082;51.786;6.018;2023-08-08T10:05:11;13.37;;;12.53;;
23802;SDS011;12082;51.786;6.018;2023-08-08T10:07:39;15.13;;;14.33;;
23802;SDS011;12082;51.786;6.018;2023-08-08T10:10:06;16.97;;;15.97;;
23802;SDS011;12082;51.786;6.018;2023-08-08T10:12:33;17.53;;;16.43;;
23802;SDS011;12082;51.786;6.018;2023-08-08T10:14:58;14.90;;;13.97;;
23802;SDS011;12082;51.786;6.018;2023-08-08T10:17:25;14.60;;;13.73;;
23802;SDS011;12082;51.786;6.018;2023-08-08T10:19:51;14.30;;;13.50;;
23802;SDS011;12082;51.786;6.018;2023-08-08T10:22:22;14.00;;;13.13;;
23802;SDS011;12082;51.786;6.018;2023-08-08T10:24:51;14.03;;;13.23;;
23802;SDS011;12082;51.786;6.018;2023-08-08T10:27:27;15.43;;;14.63;;
23802;SDS011;12082;51.786;6.018;2023-08-08T10:30:00;14.63;;;13.83;;
23802;SDS011;12082;51.786;6.018;2023-08-08T10:32:26;12.97;;;12.33;;
23802;SDS011;12082;51.786;6.018;2023-08-08T10:34:54;12.33;;;11.37;;
23802;SDS011;12082;51.786;6.018;2023-08-08T10:37:20;15.67;;;14.87;;
23802;SDS011;12082;51.786;6.018;2023-08-08T10:39:54;15.07;;;14.30;;
23802;SDS011;12082;51.786;6.018;2023-08-08T10:42:25;14.73;;;14.00;;
23802;SDS011;12082;51.786;6.018;2023-08-08T10:44:55;17.63;;;16.73;;
23802;SDS011;12082;51.786;6.018;2023-08-08T10:47:26;17.90;;;16.77;;
23802;SDS011;12082;51.786;6.018;2023-08-08T10:50:11;18.63;;;16.40;;
23802;SDS011;12082;51.786;6.018;2023-08-08T10:52:49;15.70;;;14.90;;
23802;SDS011;12082;51.786;6.018;2023-08-08T10:55:25;16.17;;;15.37;;
23802;SDS011;12082;51.786;6.018;2023-08-08T11:00:28;15.17;;;14.47;;
23802;SDS011;12082;51.786;6.018;2023-08-08T11:03:00;15.23;;;13.83;;
23802;SDS011;12082;51.786;6.018;2023-08-08T11:05:28;12.77;;;12.17;;
23802;SDS011;12082;51.786;6.018;2023-08-08T11:07:55;15.70;;;14.77;;
23802;SDS011;12082;51.786;6.018;2023-08-08T11:10:21;16.60;;;15.80;;
23802;SDS011;12082;51.786;6.018;2023-08-08T11:13:00;17.70;;;16.80;;
23802;SDS011;12082;51.786;6.018;2023-08-08T11:15:28;18.57;;;17.23;;
23802;SDS011;12082;51.786;6.018;2023-08-08T11:17:54;15.67;;;14.87;;
23802;SDS011;12082;51.786;6.018;2023-08-08T11:20:21;16.40;;;15.40;;
23802;SDS011;12082;51.786;6.018;2023-08-08T11:22:54;16.33;;;15.43;;
23802;SDS011;12082;51.786;6.018;2023-08-08T11:25:21;14.87;;;14.17;;
23802;SDS011;12082;51.786;6.018;2023-08-08T11:27:53;16.67;;;15.47;;
23802;SDS011;12082;51.786;6.018;2023-08-08T11:30:20;14.20;;;13.47;;
23802;SDS011;12082;51.786;6.018;2023-08-08T11:32:47;17.33;;;16.33;;
23802;SDS011;12082;51.786;6.018;2023-08-08T11:35:17;16.57;;;15.60;;
23802;SDS011;12082;51.786;6.018;2023-08-08T11:37:46;14.40;;;13.70;;
23802;SDS011;12082;51.786;6.018;2023-08-08T11:40:13;14.37;;;13.60;;
23802;SDS011;12082;51.786;6.018;2023-08-08T11:42:39;13.87;;;12.87;;
23802;SDS011;12082;51.786;6.018;2023-08-08T11:45:07;14.70;;;13.90;;
23802;SDS011;12082;51.786;6.018;2023-08-08T11:47:34;14.73;;;13.67;;
23802;SDS011;12082;51.786;6.018;2023-08-08T11:50:02;15.67;;;14.70;;
23802;SDS011;12082;51.786;6.018;2023-08-08T11:52:29;13.40;;;12.40;;
23802;SDS011;12082;51.786;6.018;2023-08-08T11:54:55;12.50;;;11.63;;
23802;SDS011;12082;51.786;6.018;2023-08-08T11:57:22;13.23;;;12.23;;
23802;SDS011;12082;51.786;6.018;2023-08-08T11:59:48;13.97;;;13.23;;
23802;SDS011;12082;51.786;6.018;2023-08-08T12:02:14;13.30;;;12.40;;
23802;SDS011;12082;51.786;6.018;2023-08-08T12:04:47;13.87;;;12.97;;
23802;SDS011;12082;51.786;6.018;2023-08-08T12:07:12;13.67;;;12.97;;
23802;SDS011;12082;51.786;6.018;2023-08-08T12:09:38;12.60;;;11.97;;
23802;SDS011;12082;51.786;6.018;2023-08-08T12:12:05;14.03;;;13.23;;
23802;SDS011;12082;51.786;6.018;2023-08-08T12:14:36;13.17;;;12.47;;
23802;SDS011;12082;51.786;6.018;2023-08-08T12:17:02;17.13;;;15.97;;
23802;SDS011;12082;51.786;6.018;2023-08-08T12:19:28;13.57;;;12.67;;
23802;SDS011;12082;51.786;6.018;2023-08-08T12:21:54;13.57;;;12.63;;
23802;SDS011;12082;51.786;6.018;2023-08-08T12:24:20;12.70;;;11.87;;
23802;SDS011;12082;51.786;6.018;2023-08-08T12:26:45;15.27;;;14.47;;
23802;SDS011;12082;51.786;6.018;2023-08-08T12:29:11;14.60;;;13.60;;
23802;SDS011;12082;51.786;6.018;2023-08-08T12:31:37;18.33;;;17.37;;
23802;SDS011;12082;51.786;6.018;2023-08-08T12:34:04;16.67;;;15.47;;
23802;SDS011;12082;51.786;6.018;2023-08-08T12:36:30;16.47;;;15.57;;
23802;SDS011;12082;51.786;6.018;2023-08-08T12:38:55;12.13;;;11.53;;
23802;SDS011;12082;51.786;6.018;2023-08-08T12:41:22;13.33;;;12.63;;
23802;SDS011;12082;51.786;6.018;2023-08-08T12:43:49;14.37;;;13.57;;
23802;SDS011;12082;51.786;6.018;2023-08-08T12:46:15;11.83;;;11.23;;
23802;SDS011;12082;51.786;6.018;2023-08-08T12:48:41;13.30;;;12.37;;
23802;SDS011;12082;51.786;6.018;2023-08-08T12:51:08;12.20;;;11.50;;
23802;SDS011;12082;51.786;6.018;2023-08-08T12:53:34;12.43;;;11.83;;
23802;SDS011;12082;51.786;6.018;2023-08-08T12:55:59;12.43;;;11.73;;
23802;SDS011;12082;51.786;6.018;2023-08-08T12:58:25;13.67;;;12.87;;
23802;SDS011;12082;51.786;6.018;2023-08-08T13:00:51;11.80;;;11.17;;
23802;SDS011;12082;51.786;6.018;2023-08-08T13:03:16;11.60;;;11.00;;
23802;SDS011;12082;51.786;6.018;2023-08-08T13:05:42;13.43;;;12.73;;
23802;SDS011;12082;51.786;6.018;2023-08-08T13:08:08;12.00;;;10.97;;
23802;SDS011;12082;51.786;6.018;2023-08-08T13:10:33;13.07;;;12.37;;
23802;SDS011;12082;51.786;6.018;2023-08-08T13:13:00;13.83;;;12.73;;
23802;SDS011;12082;51.786;6.018;2023-08-08T13:15:26;11.70;;;11.10;;
23802;SDS011;12082;51.786;6.018;2023-08-08T13:17:51;10.97;;;10.47;;
23802;SDS011;12082;51.786;6.018;2023-08-08T13:20:17;12.10;;;11.47;;
23802;SDS011;12082;51.786;6.018;2023-08-08T13:22:42;11.87;;;10.97;;
23802;SDS011;12082;51.786;6.018;2023-08-08T13:25:08;13.47;;;12.77;;
23802;SDS011;12082;51.786;6.018;2023-08-08T13:27:33;13.50;;;12.80;;
23802;SDS011;12082;51.786;6.018;2023-08-08T13:29:59;10.87;;;10.27;;
23802;SDS011;12082;51.786;6.018;2023-08-08T13:32:24;13.27;;;12.63;;
23802;SDS011;12082;51.786;6.018;2023-08-08T13:34:50;12.13;;;11.53;;
23802;SDS011;12082;51.786;6.018;2023-08-08T13:37:16;11.67;;;11.07;;
23802;SDS011;12082;51.786;6.018;2023-08-08T13:39:41;11.13;;;10.50;;
23802;SDS011;12082;51.786;6.018;2023-08-08T13:42:08;11.87;;;11.17;;
23802;SDS011;12082;51.786;6.018;2023-08-08T13:44:34;11.07;;;10.40;;
23802;SDS011;12082;51.786;6.018;2023-08-08T13:46:59;14.43;;;13.50;;
23802;SDS011;12082;51.786;6.018;2023-08-08T13:49:25;12.83;;;12.17;;
23802;SDS011;12082;51.786;6.018;2023-08-08T13:51:52;11.73;;;11.20;;
23802;SDS011;12082;51.786;6.018;2023-08-08T13:54:20;12.07;;;11.47;;
23802;SDS011;12082;51.786;6.018;2023-08-08T13:56:46;12.70;;;11.93;;
23802;SDS011;12082;51.786;6.018;2023-08-08T13:59:12;11.90;;;11.30;;
23802;SDS011;12082;51.786;6.018;2023-08-08T14:01:37;12.70;;;11.80;;
23802;SDS011;12082;51.786;6.018;2023-08-08T14:04:03;12.37;;;11.67;;
23802;SDS011;12082;51.786;6.018;2023-08-08T14:06:29;13.23;;;12.63;;
23802;SDS011;12082;51.786;6.018;2023-08-08T14:08:55;12.00;;;11.33;;
23802;SDS011;12082;51.786;6.018;2023-08-08T14:11:21;12.23;;;11.60;;
23802;SDS011;12082;51.786;6.018;2023-08-08T14:13:47;13.30;;;12.63;;
23802;SDS011;12082;51.786;6.018;2023-08-08T14:16:12;13.60;;;12.57;;
23802;SDS011;12082;51.786;6.018;2023-08-08T14:18:38;12.77;;;12.17;;
23802;SDS011;12082;51.786;6.018;2023-08-08T14:21:04;11.80;;;11.20;;